Time;durP1;ratioP1;P1;durP2;ratioP2;P2;SDS_P1;SDS_P2;PMS_P1;PMS_P2;Temp;Humidity;BMP_temperature;BMP_pressure;BME280_temperature;BME280_humidity;BME280_pressure;Samples;Min_cycle;Max_cycle;Signal;HPM_P1;HPM_P2
2021/07/22 04:45:32;;;;;;;27.70;19.20;;;17.40;98.70;;;;;;5298823;23;20046;-81
2021/07/22 04:48:00;;;;;;;33.88;19.10;;;17.50;98.70;;;;;;4986435;28;20489;-80
2021/07/22 04:50:26;;;;;;;26.20;19.08;;;17.50;98.70;;;;;;4956822;28;20539;-81
2021/07/22 04:52:51;;;;;;;27.23;18.60;;;17.50;98.70;;;;;;4972288;28;20023;-81
2021/07/22 04:55:17;;;;;;;28.80;20.30;;;17.50;98.90;;;;;;4970120;28;20046;-81
2021/07/22 04:57:42;;;;;;;28.33;19.90;;;17.50;98.70;;;;;;4991985;28;20037;-81
2021/07/22 05:00:08;;;;;;;29.35;20.77;;;17.50;98.70;;;;;;4992681;28;20485;-81
2021/07/22 05:02:34;;;;;;;29.90;21.25;;;17.50;98.60;;;;;;4990767;28;20497;-81
2021/07/22 05:04:59;;;;;;;29.00;20.30;;;17.60;98.60;;;;;;4957159;28;20042;-81
2021/07/22 05:07:26;;;;;;;29.15;21.35;;;17.60;98.60;;;;;;4972230;28;20030;-81
2021/07/22 05:09:51;;;;;;;27.92;20.27;;;17.50;98.60;;;;;;4971602;28;20056;-81
2021/07/22 05:12:17;;;;;;;30.67;21.02;;;17.60;98.90;;;;;;4993641;28;20417;-81
2021/07/22 05:14:42;;;;;;;32.25;21.17;;;17.60;98.80;;;;;;4959583;28;20393;-81
2021/07/22 05:17:08;;;;;;;29.73;20.95;;;17.70;98.80;;;;;;4959905;28;20041;-81
2021/07/22 05:19:33;;;;;;;28.40;20.00;;;17.60;98.80;;;;;;4976073;28;20026;-81
2021/07/22 05:21:59;;;;;;;28.77;22.08;;;17.70;98.70;;;;;;4992571;28;20030;-81
2021/07/22 05:24:24;;;;;;;36.35;24.23;;;17.70;98.60;;;;;;4959619;28;20050;-81
2021/07/22 05:26:50;;;;;;;31.08;22.25;;;17.70;98.30;;;;;;4976397;28;20034;-81
2021/07/22 05:29:16;;;;;;;34.42;23.27;;;17.70;98.20;;;;;;4959280;28;20030;-81
2021/07/22 05:31:42;;;;;;;29.55;21.52;;;17.70;98.20;;;;;;4976297;28;20026;-81
2021/07/22 05:34:08;;;;;;;33.35;22.25;;;17.80;98.20;;;;;;4990584;28;20485;-81
2021/07/22 05:36:34;;;;;;;29.52;22.25;;;17.80;98.20;;;;;;4974523;28;20031;-81
2021/07/22 05:38:59;;;;;;;33.70;21.90;;;17.80;98.10;;;;;;4990706;28;20031;-81
2021/07/22 05:41:25;;;;;;;31.58;22.05;;;17.80;98.00;;;;;;4955426;28;20505;-81
2021/07/22 05:43:50;;;;;;;32.53;22.52;;;17.90;98.00;;;;;;4960749;28;20030;-81
2021/07/22 05:46:19;;;;;;;35.88;22.65;;;17.90;97.90;;;;;;4940275;28;20447;-81
2021/07/22 05:48:46;;;;;;;33.67;24.30;;;17.90;97.90;;;;;;4940285;28;20033;-81
2021/07/22 05:51:12;;;;;;;31.95;22.73;;;18.00;98.00;;;;;;4955744;28;20031;-81
2021/07/22 05:53:37;;;;;;;37.15;24.35;;;18.00;98.00;;;;;;4955730;28;20037;-81
2021/07/22 05:56:03;;;;;;;37.63;23.77;;;18.00;98.00;;;;;;4955112;28;20058;-81
2021/07/22 05:58:28;;;;;;;38.22;22.80;;;18.10;97.80;;;;;;4954739;28;20027;-81
2021/07/22 06:00:54;;;;;;;31.35;21.95;;;18.10;97.80;;;;;;4938598;28;20062;-81
2021/07/22 06:03:20;;;;;;;36.95;23.83;;;18.10;97.90;;;;;;4973493;28;20386;-81
2021/07/22 06:05:45;;;;;;;34.28;23.52;;;18.20;98.10;;;;;;4955237;28;20486;-81
2021/07/22 06:08:11;;;;;;;35.53;24.13;;;18.20;98.00;;;;;;4973688;28;20035;-81
2021/07/22 06:10:37;;;;;;;34.35;24.25;;;18.20;98.00;;;;;;4974057;28;20026;-81
2021/07/22 06:13:02;;;;;;;40.63;24.65;;;18.30;97.90;;;;;;4992082;28;20406;-81
2021/07/22 06:15:28;;;;;;;34.13;23.15;;;18.30;97.90;;;;;;4992058;28;20038;-81
2021/07/22 06:17:53;;;;;;;33.05;21.63;;;18.30;97.50;;;;;;4958211;28;20133;-81
2021/07/22 06:20:19;;;;;;;32.50;22.15;;;18.40;96.70;;;;;;4999971;28;20100;-81
2021/07/22 06:22:45;;;;;;;32.90;22.10;;;18.40;96.20;;;;;;4984820;28;20030;-81
2021/07/22 06:25:12;;;;;;;38.80;23.45;;;18.50;96.50;;;;;;4975225;28;20026;-81
2021/07/22 06:27:38;;;;;;;37.28;23.33;;;18.50;96.40;;;;;;4959184;28;20034;-81
2021/07/22 06:30:04;;;;;;;36.50;24.80;;;18.50;96.10;;;;;;4942765;28;20034;-81
2021/07/22 06:32:29;;;;;;;39.15;25.20;;;18.60;96.00;;;;;;4974620;28;20080;-81
2021/07/22 06:34:55;;;;;;;32.40;23.85;;;18.60;95.60;;;;;;4956732;28;20038;-81
2021/07/22 06:37:20;;;;;;;35.65;24.30;;;18.60;95.50;;;;;;4938926;28;20481;-81
2021/07/22 06:39:46;;;;;;;39.20;25.00;;;18.70;95.70;;;;;;4973827;28;20034;-81
2021/07/22 06:42:11;;;;;;;44.17;25.95;;;18.70;95.70;;;;;;4954635;28;20037;-81
2021/07/22 06:44:37;;;;;;;39.42;25.52;;;18.80;95.60;;;;;;4955365;28;20030;-81
2021/07/22 06:47:03;;;;;;;47.33;28.65;;;18.80;95.30;;;;;;4956262;28;20038;-82
2021/07/22 06:49:28;;;;;;;36.03;25.10;;;18.90;95.40;;;;;;4958831;28;20064;-82
2021/07/22 06:51:54;;;;;;;37.92;25.73;;;19.00;95.30;;;;;;4992177;28;20042;-82
2021/07/22 06:54:20;;;;;;;37.13;24.02;;;19.00;95.00;;;;;;4974559;28;20030;-81
2021/07/22 06:56:46;;;;;;;36.80;25.65;;;19.10;94.90;;;;;;4993045;28;20030;-81
2021/07/22 06:59:11;;;;;;;40.38;25.48;;;19.10;95.00;;;;;;4991692;28;20035;-82
2021/07/22 07:01:37;;;;;;;39.92;25.05;;;19.20;94.60;;;;;;4991281;28;20026;-82
2021/07/22 07:04:03;;;;;;;39.50;24.63;;;19.30;94.50;;;;;;4955178;28;20027;-81
2021/07/22 07:06:29;;;;;;;42.47;26.20;;;19.30;94.40;;;;;;4955553;28;20057;-82
2021/07/22 07:08:55;;;;;;;36.33;22.55;;;19.40;93.30;;;;;;4955074;28;20034;-82
2021/07/22 07:11:20;;;;;;;36.38;23.52;;;19.50;93.50;;;;;;4956344;28;20034;-82
2021/07/22 07:13:46;;;;;;;37.33;23.90;;;19.50;93.90;;;;;;4970085;28;20693;-82
2021/07/22 07:16:11;;;;;;;38.10;24.45;;;19.60;93.60;;;;;;4969171;28;20034;-82
2021/07/22 07:18:37;;;;;;;35.83;23.27;;;19.60;93.30;;;;;;4972101;28;20046;-82
2021/07/22 07:21:03;;;;;;;35.90;21.98;;;19.70;93.20;;;;;;4958359;28;20030;-81
2021/07/22 07:23:29;;;;;;;41.83;22.83;;;19.70;93.10;;;;;;4975266;28;20026;-82
2021/07/22 07:25:55;;;;;;;37.38;22.40;;;19.80;93.20;;;;;;4942796;28;20398;-81
2021/07/22 07:28:20;;;;;;;34.50;22.27;;;19.80;93.10;;;;;;4964206;28;20097;-82
2021/07/22 07:30:46;;;;;;;32.03;22.55;;;19.80;93.00;;;;;;4942873;28;20030;-82
2021/07/22 07:33:11;;;;;;;35.50;23.60;;;19.90;93.10;;;;;;4955001;28;20437;-82
2021/07/22 07:35:37;;;;;;;36.88;22.90;;;19.90;93.20;;;;;;4986663;28;20458;-82
2021/07/22 07:38:02;;;;;;;35.35;23.15;;;19.90;92.40;;;;;;4941840;28;20027;-83
2021/07/22 07:40:28;;;;;;;34.50;23.02;;;20.00;92.00;;;;;;4949830;28;20031;-82
2021/07/22 07:42:53;;;;;;;31.02;19.98;;;20.00;92.10;;;;;;4960986;28;20030;-82
2021/07/22 07:45:19;;;;;;;31.70;22.08;;;20.10;92.10;;;;;;4993265;28;20046;-82
2021/07/22 07:47:45;;;;;;;27.08;18.85;;;20.10;92.10;;;;;;4992737;28;20129;-82
2021/07/22 07:50:11;;;;;;;32.92;21.40;;;20.10;91.90;;;;;;4977346;28;20056;-82
2021/07/22 07:52:39;;;;;;;28.67;20.83;;;20.20;91.80;;;;;;4984593;28;20501;-82
2021/07/22 07:55:05;;;;;;;25.75;18.48;;;20.20;91.90;;;;;;4941929;28;20027;-82
2021/07/22 07:57:31;;;;;;;33.45;20.23;;;20.20;91.80;;;;;;4950239;28;20026;-82
2021/07/22 07:59:56;;;;;;;26.80;19.17;;;20.30;91.60;;;;;;4993749;28;20037;-82
2021/07/22 08:02:22;;;;;;;30.45;20.95;;;20.30;91.70;;;;;;4960730;28;20030;-82
2021/07/22 08:04:47;;;;;;;34.00;18.88;;;20.30;91.80;;;;;;4962110;28;20033;-82
2021/07/22 08:07:13;;;;;;;28.95;19.17;;;20.40;91.80;;;;;;4960239;28;20029;-82
2021/07/22 08:09:38;;;;;;;28.50;19.50;;;20.40;92.10;;;;;;4995100;28;20030;-82
2021/07/22 08:12:04;;;;;;;26.17;17.58;;;20.40;92.60;;;;;;4988535;28;20023;-82
2021/07/22 08:14:33;;;;;;;25.63;18.13;;;20.50;92.40;;;;;;4974178;28;20089;-82
2021/07/22 08:16:59;;;;;;;33.88;20.27;;;20.50;92.10;;;;;;4942389;28;20031;-82
2021/07/22 08:19:24;;;;;;;28.27;19.73;;;20.50;91.90;;;;;;4975303;28;20040;-82
2021/07/22 08:21:50;;;;;;;29.80;21.27;;;20.50;91.50;;;;;;4975106;28;20065;-82
2021/07/22 08:24:15;;;;;;;27.23;18.70;;;20.50;91.30;;;;;;4979749;28;20356;-81
2021/07/22 08:26:41;;;;;;;26.50;18.70;;;20.50;91.40;;;;;;4960096;28;20066;-82
2021/07/22 08:29:06;;;;;;;29.50;19.48;;;20.60;91.60;;;;;;4976612;28;20034;-83
2021/07/22 08:31:32;;;;;;;27.67;17.80;;;20.60;91.70;;;;;;4945258;28;20030;-82
2021/07/22 08:33:58;;;;;;;25.23;17.88;;;20.60;91.60;;;;;;4960214;28;20036;-82
2021/07/22 08:36:23;;;;;;;28.30;18.63;;;20.60;91.50;;;;;;4959553;28;20396;-82
2021/07/22 08:38:49;;;;;;;27.67;18.38;;;20.70;91.30;;;;;;4960595;28;20030;-83
2021/07/22 08:41:14;;;;;;;26.20;18.90;;;20.80;91.10;;;;;;4994202;28;20113;-82
2021/07/22 08:43:40;;;;;;;30.98;20.98;;;20.80;91.00;;;;;;4967536;28;20093;-82
2021/07/22 08:46:06;;;;;;;26.70;17.90;;;20.90;91.00;;;;;;4995652;28;20556;-83
2021/07/22 08:48:36;;;;;;;24.10;17.27;;;20.90;90.60;;;;;;4986441;28;20038;-82
2021/07/22 08:51:03;;;;;;;29.67;19.58;;;20.90;90.80;;;;;;4976274;28;20464;-82
2021/07/22 08:53:29;;;;;;;26.38;19.42;;;20.90;90.80;;;;;;4993141;28;20030;-83
2021/07/22 08:55:55;;;;;;;26.50;18.13;;;21.00;90.20;;;;;;4959560;28;20030;-83
2021/07/22 08:58:21;;;;;;;26.48;17.90;;;21.00;90.30;;;;;;4960203;28;20027;-83
2021/07/22 09:00:46;;;;;;;25.60;18.70;;;21.00;90.20;;;;;;4959749;28;20090;-82
2021/07/22 09:03:12;;;;;;;25.73;17.45;;;21.10;89.30;;;;;;4960277;28;20030;-83
2021/07/22 09:05:39;;;;;;;24.45;16.65;;;21.10;90.20;;;;;;4976357;28;20026;-82
2021/07/22 09:08:05;;;;;;;30.00;18.58;;;21.10;90.30;;;;;;4991397;28;20038;-83
2021/07/22 09:10:31;;;;;;;30.35;18.98;;;21.20;90.30;;;;;;4992250;28;20027;-82
2021/07/22 09:12:56;;;;;;;24.52;16.92;;;21.20;88.80;;;;;;4959728;28;20034;-82
2021/07/22 09:15:23;;;;;;;27.92;17.98;;;21.20;89.00;;;;;;4959505;28;20563;-83
2021/07/22 09:17:48;;;;;;;28.30;19.17;;;21.30;86.70;;;;;;4975320;28;20081;-83
2021/07/22 09:20:34;;;;;;;30.58;19.10;;;21.40;87.40;;;;;;4960003;28;20039;-83
2021/07/22 09:23:00;;;;;;;30.30;20.52;;;21.40;87.30;;;;;;4981373;28;20086;-82
2021/07/22 09:25:45;;;;;;;28.55;19.58;;;21.50;87.50;;;;;;4963217;28;20026;-83
2021/07/22 09:28:18;;;;;;;28.98;19.08;;;21.50;87.90;;;;;;4958576;28;20030;-83
2021/07/22 09:30:54;;;;;;;25.55;17.63;;;21.60;87.00;;;;;;4975310;28;20049;-83
2021/07/22 09:33:39;;;;;;;24.05;16.92;;;21.60;87.60;;;;;;4992372;28;20054;-83
2021/07/22 09:36:06;;;;;;;25.52;17.10;;;21.60;89.80;;;;;;4991855;28;20026;-83
2021/07/22 09:38:31;;;;;;;28.95;18.50;;;21.70;87.80;;;;;;4991971;28;20027;-83
2021/07/22 09:40:57;;;;;;;24.98;17.42;;;21.80;86.80;;;;;;4972919;28;20041;-82
2021/07/22 09:43:43;;;;;;;26.58;17.58;;;21.80;86.80;;;;;;4978482;28;20081;-83
2021/07/22 09:46:08;;;;;;;26.00;17.67;;;21.90;86.70;;;;;;4939502;28;20058;-83
2021/07/22 09:48:34;;;;;;;29.08;18.67;;;21.90;85.50;;;;;;4932449;28;20065;-82
2021/07/22 09:50:59;;;;;;;26.10;16.80;;;21.90;84.90;;;;;;4975967;28;20041;-82
2021/07/22 09:53:27;;;;;;;23.13;15.07;;;21.90;85.50;;;;;;4992397;28;20041;-82
2021/07/22 09:55:56;;;;;;;27.08;17.08;;;21.90;85.70;;;;;;4991957;28;20026;-82
2021/07/22 09:58:22;;;;;;;27.92;17.77;;;21.90;82.80;;;;;;4974673;28;20419;-83
2021/07/22 10:00:49;;;;;;;22.25;14.55;;;22.00;84.20;;;;;;4977930;28;20120;-82
2021/07/22 10:03:19;;;;;;;21.80;14.43;;;22.00;84.80;;;;;;4978163;28;20517;-82
2021/07/22 10:06:01;;;;;;;21.00;14.77;;;22.00;83.80;;;;;;4978811;28;20058;-82
2021/07/22 10:08:27;;;;;;;18.48;14.23;;;22.00;83.70;;;;;;4943535;28;20030;-83
2021/07/22 10:10:53;;;;;;;21.63;14.73;;;21.90;83.40;;;;;;4951623;28;20731;-82
2021/07/22 10:13:24;;;;;;;26.73;17.02;;;22.00;84.70;;;;;;4977778;28;20084;-82
2021/07/22 10:15:50;;;;;;;23.73;15.40;;;22.00;83.70;;;;;;4994255;28;20030;-83
2021/07/22 10:18:16;;;;;;;22.52;13.85;;;22.00;83.50;;;;;;4988251;28;20031;-83
2021/07/22 10:20:42;;;;;;;27.48;17.08;;;22.00;83.70;;;;;;4958805;28;20072;-83
2021/07/22 10:23:07;;;;;;;23.00;16.48;;;22.00;83.80;;;;;;4975407;28;20034;-82
2021/07/22 10:25:33;;;;;;;26.45;18.45;;;22.10;82.60;;;;;;4974703;28;20033;-83
2021/07/22 10:27:58;;;;;;;21.27;14.27;;;22.10;81.30;;;;;;4990476;28;20110;-82
2021/07/22 10:30:24;;;;;;;24.20;16.35;;;22.20;82.10;;;;;;4974439;28;20078;-83
2021/07/22 10:32:52;;;;;;;26.17;17.63;;;22.20;82.00;;;;;;4974977;28;20026;-83
2021/07/22 10:35:22;;;;;;;25.13;18.25;;;22.30;82.60;;;;;;4975637;28;20030;-83
2021/07/22 10:38:09;;;;;;;24.08;16.60;;;22.40;82.70;;;;;;4994832;28;20019;-82
2021/07/22 10:40:45;;;;;;;30.13;17.83;;;22.30;82.70;;;;;;4973941;28;20743;-82
2021/07/22 10:43:34;;;;;;;25.67;17.75;;;22.40;83.70;;;;;;4959159;28;20099;-82
2021/07/22 10:46:00;;;;;;;25.20;17.15;;;22.40;83.20;;;;;;4976410;28;20561;-83
2021/07/22 10:48:26;;;;;;;32.50;20.75;;;22.40;84.20;;;;;;4988474;28;20026;-82
2021/07/22 10:50:54;;;;;;;35.45;22.30;;;22.40;86.10;;;;;;5001384;28;20148;-83
2021/07/22 10:53:36;;;;;;;28.80;19.30;;;22.40;84.30;;;;;;4973197;28;20030;-82
2021/07/22 15:51:14;;;;;;;9.73;6.72;;;33.20;46.00;;;;;;5365615;22;20376;-86
2021/07/22 15:53:40;;;;;;;9.52;6.03;;;33.70;43.50;;;;;;4972339;28;20050;-86
2021/07/22 15:56:08;;;;;;;9.40;6.88;;;33.80;44.10;;;;;;4958343;28;20045;-87
2021/07/22 16:01:54;;;;;;;10.80;6.72;;;33.30;44.40;;;;;;4916760;29;20641;-88
2021/07/22 16:07:28;;;;;;;8.52;7.15;;;33.50;42.80;;;;;;5725275;23;20054;-88
2021/07/22 16:13:19;;;;;;;12.23;6.93;;;32.80;43.30;;;;;;5000222;28;20037;-87
2021/07/22 16:15:48;;;;;;;8.32;6.88;;;32.00;44.70;;;;;;4956942;28;20027;-88
2021/07/22 16:18:13;;;;;;;11.95;7.28;;;31.40;44.80;;;;;;4973375;28;20023;-89
2021/07/22 16:20:40;;;;;;;14.93;7.07;;;30.90;46.00;;;;;;4978674;28;20109;-89
2021/07/22 16:23:06;;;;;;;11.30;8.18;;;30.40;47.20;;;;;;4962200;28;20193;-88
2021/07/22 16:25:33;;;;;;;11.45;7.25;;;30.00;47.40;;;;;;4972754;28;20117;-90
2021/07/22 16:27:58;;;;;;;8.60;6.82;;;29.80;47.80;;;;;;4963589;28;20046;-89
2021/07/22 16:30:27;;;;;;;9.40;6.95;;;29.70;48.60;;;;;;4971786;28;20034;-90
2021/07/22 16:33:12;;;;;;;9.38;7.47;;;29.40;48.70;;;;;;4949085;28;20046;-90
2021/07/22 16:35:46;;;;;;;13.05;7.22;;;29.30;48.80;;;;;;4948947;28;20074;-90
2021/07/22 16:38:19;;;;;;;12.50;7.88;;;29.20;49.00;;;;;;4922684;28;20026;-91
2021/07/22 16:41:02;;;;;;;12.18;8.32;;;29.00;48.90;;;;;;4938055;28;20058;-90
2021/07/22 16:44:01;;;;;;;15.25;7.53;;;28.90;50.00;;;;;;4955069;28;20053;-90
2021/07/22 16:46:39;;;;;;;9.77;7.45;;;28.70;49.50;;;;;;4941145;28;20126;-90
2021/07/22 16:49:35;;;;;;;;;;;;;;;;;;;;;
2021/07/22 16:52:10;;;;;;;9.95;7.35;;;28.70;50.00;;;;;;4958239;28;20041;-89
2021/07/22 16:54:38;;;;;;;9.68;7.30;;;28.70;50.10;;;;;;4972653;28;20496;-90
2021/07/22 16:57:22;;;;;;;10.02;8.00;;;28.50;50.10;;;;;;4972894;28;20027;-90
2021/07/22 16:59:47;;;;;;;10.93;7.55;;;28.40;49.90;;;;;;4997563;23;20114;-90
2021/07/22 17:02:13;;;;;;;12.02;7.88;;;28.20;52.20;;;;;;5011226;28;20491;-87
2021/07/22 17:04:39;;;;;;;15.02;8.60;;;28.00;52.60;;;;;;4997512;28;20151;-87
2021/07/22 17:07:04;;;;;;;13.45;7.90;;;27.90;51.30;;;;;;4988833;28;20078;-87
2021/07/22 17:09:30;;;;;;;10.48;7.65;;;27.80;51.80;;;;;;4994202;28;20034;-87
2021/07/22 17:11:56;;;;;;;15.82;8.00;;;27.70;50.90;;;;;;4997081;28;20108;-86
2021/07/22 17:14:22;;;;;;;15.32;8.07;;;27.70;51.20;;;;;;4977694;28;20037;-87
2021/07/22 17:16:47;;;;;;;11.55;8.30;;;27.60;52.00;;;;;;4986656;28;20069;-87
2021/07/22 17:19:13;;;;;;;11.38;7.80;;;27.50;53.30;;;;;;4977577;28;20025;-87
2021/07/22 17:21:40;;;;;;;12.35;7.13;;;27.40;51.80;;;;;;4978046;28;20052;-87
2021/07/22 17:24:06;;;;;;;11.52;7.78;;;27.30;52.90;;;;;;4974679;28;20030;-87
2021/07/22 17:26:31;;;;;;;13.50;7.80;;;27.30;53.60;;;;;;4977950;28;20411;-87
2021/07/22 17:28:57;;;;;;;14.10;7.72;;;27.10;54.10;;;;;;4977672;28;20030;-87
2021/07/22 17:31:22;;;;;;;12.15;8.13;;;27.10;55.10;;;;;;4993827;28;20065;-87
2021/07/22 17:33:48;;;;;;;15.50;8.32;;;27.00;52.30;;;;;;4977788;28;20031;-87
2021/07/22 17:36:14;;;;;;;11.52;7.28;;;26.80;53.30;;;;;;4993541;28;20025;-88
2021/07/22 17:38:39;;;;;;;14.77;7.78;;;26.70;54.40;;;;;;5000579;28;20535;-87
2021/07/22 17:41:05;;;;;;;12.38;8.90;;;26.50;54.20;;;;;;5005898;28;20047;-88
2021/07/22 17:43:30;;;;;;;11.43;8.48;;;26.50;55.10;;;;;;5004634;28;20472;-88
2021/07/22 17:45:56;;;;;;;11.63;7.93;;;26.40;55.20;;;;;;4997130;28;20060;-88
2021/07/22 17:48:21;;;;;;;12.82;7.68;;;26.30;56.30;;;;;;5011840;28;20111;-87
2021/07/22 17:50:47;;;;;;;15.43;7.03;;;26.20;56.90;;;;;;4993777;28;20490;-87
2021/07/22 17:53:12;;;;;;;10.10;7.95;;;26.20;56.80;;;;;;4993553;28;20489;-88
2021/07/22 17:55:38;;;;;;;9.48;7.43;;;26.10;57.70;;;;;;4992196;28;20034;-87
2021/07/22 17:58:03;;;;;;;11.80;8.00;;;26.00;55.50;;;;;;4993203;28;20036;-87
2021/07/22 18:00:29;;;;;;;13.70;8.07;;;25.90;56.90;;;;;;4977288;28;20056;-87
2021/07/22 18:02:55;;;;;;;13.70;8.77;;;25.80;56.80;;;;;;4993340;28;20124;-87
2021/07/22 18:05:20;;;;;;;17.83;10.07;;;25.80;57.60;;;;;;5019195;28;20095;-88
2021/07/22 18:07:46;;;;;;;15.50;8.90;;;25.70;57.90;;;;;;4979907;28;20041;-87
2021/07/22 18:10:12;;;;;;;13.43;9.20;;;25.60;57.90;;;;;;4992438;28;20572;-87
2021/07/22 18:12:37;;;;;;;15.43;9.95;;;25.60;59.90;;;;;;4977054;28;20029;-87
2021/07/22 18:15:07;;;;;;;18.17;9.57;;;25.40;59.10;;;;;;4973623;28;20029;-88
2021/07/22 18:17:34;;;;;;;17.08;10.00;;;25.40;60.70;;;;;;4976952;28;20056;-84
2021/07/22 18:20:02;;;;;;;10.75;8.25;;;25.30;60.30;;;;;;4992956;28;20034;-83
2021/07/22 18:22:32;;;;;;;14.98;9.43;;;25.20;60.30;;;;;;5009820;28;20032;-84
2021/07/22 18:24:57;;;;;;;15.32;9.63;;;25.20;60.80;;;;;;4992606;28;20704;-87
2021/07/22 18:27:23;;;;;;;12.20;8.68;;;25.10;59.80;;;;;;5006033;28;20025;-86
2021/07/22 18:29:48;;;;;;;13.77;8.43;;;25.00;60.90;;;;;;4959711;28;20030;-87
2021/07/22 18:32:39;;;;;;;20.33;8.35;;;25.00;61.20;;;;;;4967850;28;20036;-89
2021/07/22 18:35:12;;;;;;;13.55;8.10;;;24.90;64.00;;;;;;4991461;28;20029;-89
2021/07/22 18:37:39;;;;;;;11.57;7.25;;;24.90;62.60;;;;;;4973990;28;20030;-87
2021/07/22 18:40:06;;;;;;;13.07;7.18;;;24.70;64.50;;;;;;4974148;28;20025;-87
2021/07/22 18:42:31;;;;;;;9.75;7.43;;;24.70;63.80;;;;;;4958958;28;20034;-89
2021/07/22 18:44:57;;;;;;;13.07;8.00;;;24.60;63.00;;;;;;4975773;28;20088;-86
2021/07/22 18:47:23;;;;;;;14.55;9.63;;;24.50;64.10;;;;;;4967567;28;20048;-87
2021/07/22 18:49:49;;;;;;;14.77;8.68;;;24.50;64.10;;;;;;4989954;28;20033;-88
2021/07/22 18:52:16;;;;;;;12.98;7.78;;;24.40;63.10;;;;;;4974608;28;20057;-89
2021/07/22 18:54:42;;;;;;;12.32;7.57;;;24.30;63.30;;;;;;4982036;28;20372;-88
2021/07/22 18:57:08;;;;;;;11.45;7.65;;;24.20;63.90;;;;;;4985364;28;20136;-87
2021/07/22 18:59:33;;;;;;;12.85;9.00;;;24.10;64.50;;;;;;4973085;28;20137;-87
2021/07/22 19:02:00;;;;;;;25.55;9.82;;;24.10;67.00;;;;;;4957907;28;20029;-87
2021/07/22 19:04:26;;;;;;;16.52;9.88;;;24.00;66.90;;;;;;4975995;28;20029;-88
2021/07/22 19:06:52;;;;;;;12.57;8.32;;;24.00;67.10;;;;;;4976681;28;20494;-87
2021/07/22 19:09:18;;;;;;;14.40;7.97;;;23.90;68.00;;;;;;4991061;28;20040;-88
2021/07/22 19:11:44;;;;;;;9.95;7.72;;;23.80;68.30;;;;;;4968656;28;20021;-87
2021/07/22 19:14:09;;;;;;;10.45;7.38;;;23.80;68.20;;;;;;4984669;28;20542;-89
2021/07/22 19:16:35;;;;;;;12.90;7.10;;;23.70;67.90;;;;;;4974718;28;20531;-88
2021/07/22 19:19:01;;;;;;;11.65;7.22;;;23.60;69.30;;;;;;4978000;28;20052;-89
2021/07/22 19:21:27;;;;;;;9.73;7.40;;;23.40;67.10;;;;;;4962038;28;20052;-88
2021/07/22 19:23:55;;;;;;;13.00;7.00;;;23.50;68.70;;;;;;4980131;28;20440;-89
2021/07/22 19:26:21;;;;;;;15.15;7.15;;;23.40;70.50;;;;;;4961920;28;20499;-88
2021/07/22 19:28:46;;;;;;;13.02;7.78;;;23.40;70.90;;;;;;4964036;28;20026;-88
2021/07/22 19:31:12;;;;;;;14.00;8.15;;;23.30;70.80;;;;;;4973138;28;20033;-87
2021/07/22 19:33:38;;;;;;;12.00;7.20;;;23.30;73.30;;;;;;4971489;28;20036;-87
2021/07/22 19:36:04;;;;;;;12.02;6.80;;;23.20;71.90;;;;;;4972093;28;20030;-87
2021/07/22 19:38:29;;;;;;;12.85;7.55;;;23.20;72.50;;;;;;4973246;28;20555;-88
2021/07/22 19:40:55;;;;;;;17.08;8.48;;;23.10;73.70;;;;;;4993249;28;20032;-89
2021/07/22 19:43:22;;;;;;;12.10;7.55;;;23.00;73.70;;;;;;4981510;28;20076;-88
2021/07/22 19:45:48;;;;;;;13.23;8.27;;;23.00;74.10;;;;;;4997809;28;20041;-87
2021/07/22 19:48:13;;;;;;;14.23;7.80;;;23.00;74.70;;;;;;4993147;28;20033;-85
2021/07/22 19:50:39;;;;;;;11.95;7.82;;;22.90;75.70;;;;;;4977961;28;20099;-87
2021/07/22 19:53:05;;;;;;;13.68;7.82;;;22.90;75.30;;;;;;5010437;28;20036;-86
2021/07/22 19:55:30;;;;;;;13.93;7.55;;;22.80;76.10;;;;;;4979338;28;20111;-86
2021/07/22 19:57:56;;;;;;;20.27;7.70;;;22.80;77.60;;;;;;4975891;28;20087;-85
2021/07/22 20:00:23;;;;;;;15.57;7.40;;;22.70;76.90;;;;;;4970904;28;20067;-86
2021/07/22 20:02:48;;;;;;;13.05;8.70;;;22.60;76.20;;;;;;4985355;28;20041;-86
2021/07/22 20:05:14;;;;;;;18.52;7.90;;;22.50;78.10;;;;;;4994743;28;20029;-85
2021/07/22 20:07:40;;;;;;;12.32;8.50;;;22.50;77.60;;;;;;5009826;28;20091;-86
2021/07/22 20:10:07;;;;;;;11.80;7.40;;;22.50;77.70;;;;;;4974621;28;20096;-86
2021/07/22 20:12:33;;;;;;;11.50;7.70;;;22.40;78.60;;;;;;5003956;28;20094;-87
2021/07/22 20:14:58;;;;;;;14.70;7.40;;;22.40;79.60;;;;;;4995337;28;20530;-84
2021/07/22 20:17:24;;;;;;;14.05;7.75;;;22.30;79.60;;;;;;4974196;28;20040;-85
2021/07/22 20:19:49;;;;;;;13.95;7.55;;;22.20;80.30;;;;;;4977899;28;20028;-85
2021/07/22 20:22:16;;;;;;;11.07;7.55;;;22.20;81.10;;;;;;4978424;28;20025;-86
2021/07/22 20:24:42;;;;;;;11.07;7.97;;;22.20;81.90;;;;;;4982165;28;20045;-86
2021/07/22 20:27:07;;;;;;;9.93;7.28;;;22.10;81.90;;;;;;4978052;28;20029;-84
2021/07/22 20:29:37;;;;;;;13.35;7.05;;;22.10;82.60;;;;;;4976754;28;20036;-84
2021/07/22 20:32:03;;;;;;;10.02;7.85;;;22.00;81.50;;;;;;4973002;28;20065;-84
2021/07/22 20:34:29;;;;;;;8.63;7.32;;;22.00;81.40;;;;;;4967558;28;20129;-85
2021/07/22 20:36:54;;;;;;;16.17;8.50;;;21.90;82.90;;;;;;4995463;28;20097;-84
2021/07/22 20:39:20;;;;;;;12.05;7.82;;;21.90;83.10;;;;;;4990842;28;20029;-85
2021/07/22 20:41:45;;;;;;;9.85;7.25;;;21.80;82.80;;;;;;5010310;28;20024;-84
2021/07/22 20:44:12;;;;;;;9.80;6.97;;;21.80;84.10;;;;;;4975051;28;20054;-86
2021/07/22 20:46:42;;;;;;;9.95;7.05;;;21.80;83.40;;;;;;4975808;28;20021;-84
2021/07/22 20:49:08;;;;;;;13.07;7.63;;;21.70;84.00;;;;;;5010279;28;20107;-84
2021/07/22 20:51:34;;;;;;;11.98;7.57;;;21.70;84.20;;;;;;5010765;28;20555;-84
2021/07/22 20:54:01;;;;;;;11.75;7.70;;;21.60;84.50;;;;;;4981264;28;20018;-84
2021/07/22 20:56:26;;;;;;;10.25;7.68;;;21.60;84.00;;;;;;5010340;28;20026;-83
2021/07/22 20:58:53;;;;;;;11.32;7.88;;;21.50;83.90;;;;;;4991601;28;20022;-84
2021/07/22 21:01:19;;;;;;;13.38;7.43;;;21.50;83.50;;;;;;5010952;28;20104;-84
2021/07/22 21:03:44;;;;;;;11.38;7.65;;;21.40;84.30;;;;;;5011229;28;20029;-84
2021/07/22 21:06:10;;;;;;;14.93;7.65;;;21.30;83.90;;;;;;5004745;28;20044;-84
2021/07/22 21:08:35;;;;;;;13.60;7.78;;;21.30;85.50;;;;;;5010583;28;20042;-85
2021/07/22 21:11:02;;;;;;;16.08;8.73;;;21.30;85.60;;;;;;5017727;28;20025;-83
2021/07/22 21:13:27;;;;;;;12.43;7.45;;;21.20;84.80;;;;;;4962083;28;20072;-85
2021/07/22 21:15:53;;;;;;;12.32;7.25;;;21.20;85.00;;;;;;4974716;28;20061;-83
2021/07/22 21:18:19;;;;;;;13.35;7.75;;;21.10;85.00;;;;;;5009422;28;20582;-84
2021/07/22 21:20:44;;;;;;;14.52;8.20;;;21.10;85.70;;;;;;4982349;28;20021;-86
2021/07/22 21:23:11;;;;;;;12.23;7.72;;;21.10;85.60;;;;;;5030774;28;20021;-83
2021/07/22 21:25:37;;;;;;;12.95;8.13;;;21.00;85.40;;;;;;5006197;28;20047;-84
2021/07/22 21:28:03;;;;;;;16.15;8.23;;;21.00;87.70;;;;;;4995114;28;20563;-84
2021/07/22 21:33:56;;;;;;;11.90;7.70;;;20.90;87.00;;;;;;4947599;28;20042;-85
2021/07/22 21:36:24;;;;;;;12.65;8.30;;;20.90;87.50;;;;;;4989923;28;20047;-86
2021/07/22 21:38:53;;;;;;;13.02;8.27;;;20.80;88.10;;;;;;4973254;28;20568;-86
2021/07/22 21:41:28;;;;;;;12.85;8.40;;;20.80;87.90;;;;;;4990276;28;20101;-84
2021/07/22 21:43:54;;;;;;;13.75;8.82;;;20.70;88.30;;;;;;5010757;28;20033;-84
2021/07/22 21:46:19;;;;;;;18.17;8.30;;;20.70;89.40;;;;;;4994786;28;20028;-84
2021/07/22 21:49:12;;;;;;;12.25;8.23;;;20.70;89.40;;;;;;5009564;28;20053;-84
2021/07/22 21:51:37;;;;;;;18.23;7.63;;;20.60;88.50;;;;;;5000701;28;20854;-84
2021/07/22 21:54:02;;;;;;;15.88;7.95;;;20.60;89.60;;;;;;4976955;28;20033;-85
2021/07/22 21:56:28;;;;;;;11.00;8.02;;;20.50;89.70;;;;;;4993109;28;20033;-84
2021/07/22 21:58:54;;;;;;;14.15;8.32;;;20.50;90.20;;;;;;4977395;28;20021;-85
2021/07/22 22:01:19;;;;;;;13.18;7.97;;;20.50;90.50;;;;;;4993770;28;20034;-84
2021/07/22 22:03:45;;;;;;;15.25;8.45;;;20.40;90.50;;;;;;4993402;28;20436;-84
2021/07/22 22:06:10;;;;;;;13.63;8.15;;;20.40;90.90;;;;;;4977271;28;20128;-84
2021/07/22 22:08:36;;;;;;;12.63;7.68;;;20.30;90.50;;;;;;4993598;28;20104;-84
2021/07/22 22:11:02;;;;;;;14.07;8.85;;;20.30;90.70;;;;;;4977487;28;20485;-84
2021/07/22 22:13:27;;;;;;;12.65;8.45;;;20.30;91.10;;;;;;4993213;28;20033;-84
2021/07/22 22:15:53;;;;;;;15.52;8.32;;;20.20;91.00;;;;;;5009509;28;20033;-84
2021/07/22 22:18:18;;;;;;;19.27;8.80;;;20.20;91.20;;;;;;4993205;28;20036;-84
2021/07/22 22:20:44;;;;;;;14.93;8.52;;;20.10;91.00;;;;;;4976913;28;20465;-84
2021/07/22 22:23:09;;;;;;;12.55;7.57;;;20.00;91.20;;;;;;5009949;28;20026;-84
2021/07/22 22:25:35;;;;;;;13.95;8.35;;;20.00;91.30;;;;;;4973397;28;20571;-84